Time;durP1;ratioP1;P1;durP2;ratioP2;P2;SDS_P1;SDS_P2;PMS_P1;PMS_P2;Temp;Humidity;BMP_temperature;BMP_pressure;BME280_temperature;BME280_humidity;BME280_pressure;Samples;Min_cycle;Max_cycle;Signal;HPM_P1;HPM_P2
2023/10/14 00:00:47;;;;;;;4.20;3.10;;;;;;;13.25;100.00;97341.19;1225630;75;2918641;-67
2023/10/14 00:03:27;;;;;;;4.70;3.50;;;;;;;13.35;100.00;97336.97;1225739;75;2946342;-70
2023/10/14 00:06:05;;;;;;;4.00;3.05;;;;;;;13.31;100.00;97338.47;1226157;75;2914043;-68
2023/10/14 00:08:47;;;;;;;5.60;4.50;;;;;;;12.82;100.00;97330.47;1224130;75;2917466;-69
2023/10/14 00:11:21;;;;;;;5.50;4.15;;;;;;;13.04;100.00;97329.72;1225678;75;2909767;-70
2023/10/14 00:13:56;;;;;;;5.10;4.10;;;;;;;13.14;100.00;97330.97;1223307;75;2982658;-68
2023/10/14 00:16:35;;;;;;;6.50;5.05;;;;;;;12.82;100.00;97321.47;1226150;75;2915567;-69
2023/10/14 00:19:09;;;;;;;5.75;4.70;;;;;;;12.94;100.00;97331.19;1225511;75;2915933;-68
2023/10/14 00:21:45;;;;;;;5.95;5.35;;;;;;;12.69;100.00;97333.69;1225528;75;2917090;-66
2023/10/14 00:24:25;;;;;;;9.50;7.20;;;;;;;12.59;100.00;97332.44;1226135;75;2919986;-69
2023/10/14 00:27:04;;;;;;;9.55;6.60;;;;;;;12.76;100.00;97321.47;1222397;75;3092963;-68
2023/10/14 00:29:36;;;;;;;6.20;5.40;;;;;;;12.78;100.00;97308.72;1226219;75;2915717;-69
2023/10/14 00:32:10;;;;;;;5.90;4.90;;;;;;;12.89;100.00;97326.47;1223506;75;3052950;-68
2023/10/14 00:34:42;;;;;;;5.90;4.50;;;;;;;12.89;100.00;97329.19;1226015;75;2913161;-70
2023/10/14 00:37:18;;;;;;;3.90;3.50;;;;;;;12.88;100.00;97316.72;1225782;75;2915022;-70
2023/10/14 00:40:01;;;;;;;8.05;5.60;;;;;;;12.46;100.00;97315.69;1224610;75;2915527;-68
2023/10/14 00:42:33;;;;;;;9.40;7.45;;;;;;;12.34;100.00;97301.94;1225735;75;2919293;-69
2023/10/14 00:45:09;;;;;;;7.20;6.40;;;;;;;12.56;100.00;97300.50;1224999;75;2922690;-67
2023/10/14 00:47:44;;;;;;;7.20;6.30;;;;;;;12.40;100.00;97309.44;1223410;75;3014390;-68
2023/10/14 00:50:32;;;;;;;6.25;5.40;;;;;;;12.55;100.00;97304.47;1225499;75;2922405;-71
2023/10/14 00:53:08;;;;;;;;;;;;;;;12.29;100.00;97299.94;1226748;75;2915863;-67
2023/10/14 00:55:54;;;;;;;7.00;5.80;;;;;;;12.54;100.00;97292.00;1226303;75;2911182;-70
2023/10/14 00:58:28;;;;;;;9.85;6.05;;;;;;;12.31;100.00;97285.72;1225382;75;2911737;-71
2023/10/14 01:01:01;;;;;;;9.90;7.00;;;;;;;12.23;100.00;97279.22;1223342;75;3023066;-69
2023/10/14 01:03:34;;;;;;;6.90;6.05;;;;;;;12.25;100.00;97265.75;1224866;75;2912476;-71
2023/10/14 01:06:20;;;;;;;11.00;9.50;;;;;;;11.79;100.00;97273.06;1225871;75;2926184;-66
2023/10/14 01:09:02;;;;;;;8.65;7.20;;;;;;;12.26;100.00;97273.47;1225908;75;2914398;-70
2023/10/14 01:11:43;;;;;;;14.90;10.50;;;;;;;11.93;100.00;97261.19;1225781;75;2915113;-69
2023/10/14 01:14:23;;;;;;;16.15;11.90;;;;;;;11.91;100.00;97269.16;1224647;75;2931997;-68
2023/10/14 01:16:57;;;;;;;14.05;11.10;;;;;;;12.04;100.00;97260.47;1224460;75;2916219;-71
2023/10/14 01:19:30;;;;;;;15.60;11.30;;;;;;;12.09;100.00;97264.47;1226320;75;2919451;-66
2023/10/14 01:22:03;;;;;;;15.50;12.30;;;;;;;12.05;100.00;97251.00;1225301;75;2923323;-70
2023/10/14 01:24:41;;;;;;;17.70;12.45;;;;;;;11.86;100.00;97256.16;1224115;75;2921480;-72
2023/10/14 01:27:14;;;;;;;10.80;9.20;;;;;;;12.18;100.00;97245.03;1225310;75;2920863;-68
2023/10/14 01:29:51;;;;;;;8.50;7.55;;;;;;;12.21;100.00;97244.03;1225314;75;2921911;-67
2023/10/14 01:32:42;;;;;;;9.25;7.75;;;;;;;12.19;100.00;97230.06;1209630;75;4093643;-68
2023/10/14 01:35:31;;;;;;;8.60;7.00;;;;;;;12.20;100.00;97239.06;1225210;75;2919822;-70
2023/10/14 01:38:05;;;;;;;12.40;8.65;;;;;;;11.92;100.00;97232.25;1225242;75;2923103;-70
2023/10/14 01:40:48;;;;;;;11.75;9.25;;;;;;;12.00;100.00;97229.78;1225454;75;2934150;-69
2023/10/14 01:43:24;;;;;;;13.20;9.45;;;;;;;12.14;100.00;97233.53;1225465;75;2915639;-67
2023/10/14 01:46:08;;;;;;;10.55;8.70;;;;;;;12.13;100.00;97223.81;1225531;75;2914138;-72
2023/10/14 01:48:44;;;;;;;8.75;7.30;;;;;;;12.26;100.00;97220.59;1225330;75;2920585;-69
2023/10/14 01:51:16;;;;;;;13.30;9.70;;;;;;;11.94;100.00;97223.53;1224674;68;2939634;-66
2023/10/14 01:53:49;;;;;;;11.50;10.30;;;;;;;12.22;100.00;97207.13;1224888;75;2914359;-69
2023/10/14 01:56:27;;;;;;;11.75;9.45;;;;;;;11.88;100.00;97207.06;1199705;75;4933776;-70
2023/10/14 01:59:00;;;;;;;12.05;10.60;;;;;;;12.05;100.00;97200.84;1224797;75;2923767;-71
2023/10/14 02:01:35;;;;;;;8.05;6.90;;;;;;;12.28;100.00;97196.88;1225311;75;2915585;-70
2023/10/14 02:04:08;;;;;;;7.10;6.05;;;;;;;12.23;100.00;97194.16;1224708;75;2919676;-68
2023/10/14 02:06:44;;;;;;;7.85;5.90;;;;;;;12.16;100.00;97209.09;1225589;75;2919400;-67
2023/10/14 02:09:17;;;;;;;8.50;5.00;;;;;;;12.21;100.00;97194.63;1225837;75;2917076;-69
2023/10/14 02:11:52;;;;;;;9.35;7.65;;;;;;;11.80;100.00;97192.28;1225982;75;2919554;-67
2023/10/14 02:14:27;;;;;;;15.35;13.70;;;;;;;11.67;100.00;97194.78;1224593;75;2917815;-69
2023/10/14 02:17:00;;;;;;;15.65;12.80;;;;;;;11.79;100.00;97188.06;1225552;75;2915497;-67
2023/10/14 02:19:39;;;;;;;15.35;10.85;;;;;;;11.98;100.00;97196.63;1224010;75;2917306;-72
2023/10/14 02:22:12;;;;;;;15.50;11.25;;;;;;;11.79;100.00;97201.78;1225994;75;2917508;-68
2023/10/14 02:24:45;;;;;;;13.10;10.65;;;;;;;12.10;100.00;97197.38;1225445;75;2927009;-69
2023/10/14 02:27:20;;;;;;;9.65;7.95;;;;;;;12.17;100.00;97207.09;1224056;75;2917635;-68
2023/10/14 02:29:52;;;;;;;6.10;5.50;;;;;;;12.17;100.00;97185.16;1225537;75;2926583;-71
2023/10/14 02:32:26;;;;;;;5.55;4.90;;;;;;;12.18;100.00;97186.66;1225822;75;2912573;-69
2023/10/14 02:34:59;;;;;;;6.15;5.05;;;;;;;12.08;100.00;97192.38;1225456;75;2916842;-71
2023/10/14 02:37:32;;;;;;;9.70;5.30;;;;;;;12.05;100.00;97203.59;1224411;75;2923874;-70
2023/10/14 02:40:10;;;;;;;5.25;4.55;;;;;;;12.14;100.00;97190.38;1225031;75;2922005;-70
2023/10/14 02:42:46;;;;;;;;;;;;;;;11.99;100.00;97192.63;1226977;75;2914395;-72
2023/10/14 02:45:19;;;;;;;8.05;6.25;;;;;;;11.84;100.00;97195.56;1226153;75;2916609;-67
2023/10/14 02:47:52;;;;;;;9.45;7.45;;;;;;;11.83;100.00;97188.56;1221393;75;3030991;-67
2023/10/14 02:50:25;;;;;;;6.20;5.60;;;;;;;11.93;100.00;97187.13;1225926;75;2913877;-71
2023/10/14 02:53:06;;;;;;;5.70;4.75;;;;;;;11.90;100.00;97176.38;1224966;75;2915106;-69
2023/10/14 02:58:26;;;;;;;5.80;4.55;;;;;;;11.80;100.00;97151.16;1223386;75;2941601;-69
2023/10/14 03:00:59;;;;;;;5.65;4.70;;;;;;;11.83;100.00;97161.13;1225751;75;2925480;-67
2023/10/14 03:03:32;;;;;;;6.50;5.45;;;;;;;11.64;100.00;97162.84;1225197;75;2923182;-66
2023/10/14 03:06:07;;;;;;;5.65;4.90;;;;;;;11.86;100.00;97157.41;1225309;75;2919500;-70
2023/10/14 03:08:41;;;;;;;4.60;4.10;;;;;;;11.84;100.00;97156.41;1224990;75;2919227;-67
2023/10/14 03:11:21;;;;;;;6.55;3.80;;;;;;;11.77;100.00;97156.91;1225349;75;2915459;-67
2023/10/14 03:13:57;;;;;;;5.40;4.15;;;;;;;11.69;100.00;97165.59;1225990;75;2845860;-69
2023/10/14 03:16:30;;;;;;;4.70;3.95;;;;;;;11.71;100.00;97174.09;1223245;75;2961122;-72
2023/10/14 03:19:03;;;;;;;4.70;3.65;;;;;;;11.76;100.00;97175.34;1209673;75;4026969;-70
2023/10/14 03:21:41;;;;;;;4.20;3.80;;;;;;;11.67;100.00;97173.56;1211481;75;3999352;-70
2023/10/14 03:24:17;;;;;;;7.30;5.30;;;;;;;11.55;100.00;97171.31;1225544;75;2915405;-72
2023/10/14 03:26:56;;;;;;;6.15;5.30;;;;;;;11.31;100.00;97177.94;1223686;75;2962311;-70
2023/10/14 03:29:32;;;;;;;6.90;4.60;;;;;;;11.41;100.00;97173.75;1225987;75;2915772;-71
2023/10/14 03:32:09;;;;;;;5.50;4.90;;;;;;;11.35;100.00;97170.22;1224806;75;2914596;-72
2023/10/14 03:34:43;;;;;;;8.30;6.20;;;;;;;11.21;100.00;97169.19;1225070;75;2911553;-69
2023/10/14 03:37:25;;;;;;;5.45;4.85;;;;;;;11.26;100.00;97162.25;1224244;75;2928382;-69
2023/10/14 03:42:52;;;;;;;7.20;5.90;;;;;;;10.93;100.00;97176.53;1224932;75;2933216;-73
2023/10/14 03:45:29;;;;;;;8.05;5.95;;;;;;;11.05;100.00;97173.34;1223245;75;2948242;-71
2023/10/14 03:48:08;;;;;;;8.30;6.20;;;;;;;11.27;100.00;97169.94;1224253;75;2916863;-70
2023/10/14 03:50:40;;;;;;;6.75;6.05;;;;;;;11.31;100.00;97158.75;1225576;75;2916657;-71
2023/10/14 03:53:13;;;;;;;5.70;4.75;;;;;;;11.42;100.00;97167.00;1225511;75;2919281;-70
2023/10/14 03:55:46;;;;;;;5.75;4.45;;;;;;;11.31;100.00;97161.50;1225481;75;2915612;-68
2023/10/14 03:58:18;;;;;;;4.35;3.80;;;;;;;11.36;100.00;97169.00;1221577;75;3037213;-67
2023/10/14 04:00:56;;;;;;;4.60;4.10;;;;;;;11.38;100.00;97160.28;1225009;75;2917701;-68
2023/10/14 04:03:39;;;;;;;5.20;4.10;;;;;;;11.27;100.00;97164.47;1224152;75;2921351;-67
2023/10/14 04:06:14;;;;;;;8.35;5.80;;;;;;;11.25;100.00;97169.69;1224492;75;2923108;-69
2023/10/14 04:08:49;;;;;;;5.95;4.90;;;;;;;11.37;100.00;97161.50;1224657;75;2928857;-69
2023/10/14 04:11:35;;;;;;;6.15;4.20;;;;;;;11.35;100.00;97164.00;1225136;75;2916388;-67
2023/10/14 04:14:13;;;;;;;4.95;4.30;;;;;;;11.29;100.00;97163.97;1224334;75;2923264;-72
2023/10/14 04:17:09;;;;;;;6.20;5.60;;;;;;;11.26;100.00;97157.50;1224763;75;2925411;-68
2023/10/14 04:19:47;;;;;;;6.85;5.05;;;;;;;11.18;100.00;97155.72;1224542;75;2925717;-69
2023/10/14 04:22:31;;;;;;;;;;;;;;;11.30;100.00;97165.47;1225685;75;2921726;-66
2023/10/14 04:25:18;;;;;;;7.90;5.60;;;;;;;11.19;100.00;97163.44;1224771;75;2940180;-69
2023/10/14 04:28:18;;;;;;;6.05;4.80;;;;;;;11.34;100.00;97168.72;1224990;75;2919106;-69
2023/10/14 04:30:51;;;;;;;5.30;4.80;;;;;;;11.19;100.00;97179.16;1224343;75;2923842;-70
2023/10/14 04:33:34;;;;;;;5.75;4.80;;;;;;;11.19;100.00;97168.94;1224358;75;2922943;-70
2023/10/14 04:39:05;;;;;;;5.00;4.50;;;;;;;11.21;100.00;97174.66;1222717;75;3042735;-71
2023/10/14 04:41:45;;;;;;;7.95;6.20;;;;;;;11.04;100.00;97176.56;1225142;75;2916445;-69
2023/10/14 04:44:21;;;;;;;7.95;5.65;;;;;;;10.93;100.00;97185.47;1224912;75;2924333;-69
2023/10/14 04:47:01;;;;;;;7.95;6.00;;;;;;;10.87;100.00;97184.69;1224945;75;2915677;-69
2023/10/14 04:49:42;;;;;;;8.90;7.15;;;;;;;10.73;100.00;97172.66;1224721;75;2919660;-69
2023/10/14 04:52:14;;;;;;;8.65;7.20;;;;;;;10.53;100.00;97180.97;1211438;75;3887154;-68
2023/10/14 04:54:54;;;;;;;6.90;5.50;;;;;;;10.81;100.00;97192.88;1224414;75;2907710;-68
2023/10/14 04:57:27;;;;;;;6.80;5.50;;;;;;;10.74;100.00;97185.09;1221245;75;3024493;-70
2023/10/14 05:00:08;;;;;;;7.55;5.80;;;;;;;10.78;100.00;97193.13;1224979;75;2941767;-67
2023/10/14 05:02:41;;;;;;;8.65;6.65;;;;;;;10.56;100.00;97186.25;1224963;75;2919629;-66
2023/10/14 05:05:19;;;;;;;7.80;6.30;;;;;;;10.64;100.00;97176.34;1223907;75;2920547;-68
2023/10/14 05:07:58;;;;;;;8.95;6.85;;;;;;;10.71;100.00;97188.84;1223785;75;2921581;-67
2023/10/14 05:10:31;;;;;;;7.75;6.10;;;;;;;10.84;100.00;97183.69;1224678;75;2915539;-70
2023/10/14 05:13:09;;;;;;;5.30;4.80;;;;;;;10.82;100.00;97194.38;1223866;75;2918128;-67
2023/10/14 05:15:53;;;;;;;4.90;4.10;;;;;;;10.85;100.00;97192.66;1223266;75;2915788;-68
2023/10/14 05:18:35;;;;;;;6.60;5.40;;;;;;;10.49;100.00;97192.16;1223603;75;2925136;-67
2023/10/14 05:21:20;;;;;;;7.15;4.60;;;;;;;10.79;100.00;97203.56;1224025;75;2917302;-70
2023/10/14 05:23:53;;;;;;;8.35;5.10;;;;;;;10.68;100.00;97203.50;1223850;75;2924141;-69
2023/10/14 05:26:27;;;;;;;6.70;5.05;;;;;;;10.64;100.00;97205.72;1223769;75;2922243;-66
2023/10/14 05:29:11;;;;;;;6.05;5.30;;;;;;;10.74;100.00;97215.22;1224326;75;2920159;-69
2023/10/14 05:31:43;;;;;;;7.45;4.95;;;;;;;10.73;100.00;97215.72;1223836;75;2927624;-69
2023/10/14 05:34:17;;;;;;;11.45;9.15;;;;;;;10.75;100.00;97221.44;1223866;75;2920836;-64
2023/10/14 05:36:55;;;;;;;9.30;8.30;;;;;;;10.70;100.00;97225.66;1224631;75;2915681;-67
2023/10/14 05:39:28;;;;;;;6.70;5.30;;;;;;;10.58;100.00;97221.31;1224836;75;2935454;-67
2023/10/14 05:42:04;;;;;;;6.85;6.20;;;;;;;10.74;100.00;97231.66;1224327;75;2947353;-69
2023/10/14 05:44:46;;;;;;;5.55;4.95;;;;;;;10.80;100.00;97237.94;1224840;75;2918995;-66
2023/10/14 05:47:19;;;;;;;7.35;5.25;;;;;;;10.81;100.00;97236.69;1225284;75;2921972;-67
2023/10/14 05:49:52;;;;;;;4.75;4.15;;;;;;;10.91;100.00;97239.25;1222491;75;2924729;-68
2023/10/14 05:52:28;;;;;;;10.00;7.70;;;;;;;10.91;100.00;97242.72;1223834;75;2926795;-65
2023/10/14 05:55:05;;;;;;;9.15;7.20;;;;;;;11.07;100.00;97242.09;1224891;75;2923246;-69
2023/10/14 05:57:39;;;;;;;7.00;6.20;;;;;;;11.10;100.00;97232.13;1225412;75;2922388;-69
2023/10/14 06:00:23;;;;;;;7.40;5.95;;;;;;;11.14;100.00;97242.88;1194988;75;5315487;-69
2023/10/14 06:02:56;;;;;;;5.60;4.70;;;;;;;11.08;100.00;97248.31;1225192;75;2923834;-69
2023/10/14 06:05:32;;;;;;;7.05;5.50;;;;;;;11.07;100.00;97255.78;1225409;75;2916628;-70
2023/10/14 06:08:16;;;;;;;5.15;4.65;;;;;;;11.14;100.00;97251.09;1224768;75;2933273;-67
2023/10/14 06:10:49;;;;;;;6.10;4.55;;;;;;;11.31;100.00;97260.16;1224818;75;2916787;-67
2023/10/14 06:13:22;;;;;;;9.55;6.75;;;;;;;11.10;100.00;97254.06;1224694;75;2928368;-67
2023/10/14 06:15:54;;;;;;;8.75;5.70;;;;;;;11.41;100.00;97258.72;1224373;75;2922347;-68
2023/10/14 06:18:29;;;;;;;16.20;12.40;;;;;;;12.34;100.00;97262.78;1225711;75;2919881;-69
2023/10/14 06:21:02;;;;;;;18.00;15.65;;;;;;;11.63;100.00;97265.53;1224878;75;2918013;-70
2023/10/14 06:23:39;;;;;;;12.80;11.30;;;;;;;12.12;100.00;97266.97;1225170;75;2917398;-66
2023/10/14 06:26:12;;;;;;;19.75;16.95;;;;;;;13.55;100.00;97269.91;1223055;75;2917375;-68
2023/10/14 06:28:45;;;;;;;13.15;10.90;;;;;;;16.68;97.12;97268.75;1224764;75;2919335;-68
2023/10/14 06:31:18;;;;;;;12.30;8.60;;;;;;;18.67;82.35;97259.59;1221054;75;3093368;-68
2023/10/14 06:33:54;;;;;;;7.50;6.45;;;;;;;20.49;69.62;97258.97;1224582;75;2933449;-69
2023/10/14 06:36:27;;;;;;;7.20;5.95;;;;;;;21.65;64.44;97269.56;1224783;75;2937877;-67
2023/10/14 06:39:13;;;;;;;7.70;5.30;;;;;;;22.75;60.54;97266.44;1224826;75;2931474;-65
2023/10/14 06:41:46;;;;;;;5.80;4.75;;;;;;;20.70;64.64;97270.72;1224607;75;2921214;-70
2023/10/14 06:44:26;;;;;;;5.50;4.25;;;;;;;19.25;72.63;97276.38;1223919;75;2925498;-67
2023/10/14 06:46:59;;;;;;;9.55;5.75;;;;;;;17.31;88.64;97274.00;1224634;75;2918313;-71
2023/10/14 06:49:36;;;;;;;8.15;6.10;;;;;;;19.08;78.22;97282.34;1225003;75;2918410;-70
2023/10/14 06:52:11;;;;;;;9.45;5.75;;;;;;;21.02;67.49;97272.97;1224094;75;2929339;-68
2023/10/14 06:54:53;;;;;;;9.75;6.20;;;;;;;19.30;71.47;97281.75;1225128;75;2923958;-71
2023/10/14 06:57:25;;;;;;;6.60;5.35;;;;;;;18.48;80.27;97279.19;1221645;75;3025363;-67
2023/10/14 06:59:58;;;;;;;7.50;5.80;;;;;;;17.90;86.29;97279.47;1223202;75;2922804;-73
2023/10/14 07:02:31;;;;;;;8.70;4.10;;;;;;;19.19;79.45;97279.28;1224822;75;2922790;-70
2023/10/14 07:05:04;;;;;;;6.35;4.30;;;;;;;19.75;73.67;97268.75;1224534;75;2930888;-69
2023/10/14 07:07:37;;;;;;;4.35;3.55;;;;;;;22.56;63.65;97272.50;1224689;75;2933008;-69
2023/10/14 07:10:14;;;;;;;4.95;3.30;;;;;;;25.38;54.43;97268.38;1224726;75;2920948;-71
2023/10/14 07:12:46;;;;;;;3.75;3.10;;;;;;;27.56;48.61;97274.47;1224818;75;2916926;-69
2023/10/14 07:15:19;;;;;;;4.00;2.90;;;;;;;25.71;51.70;97275.03;1224941;75;2919004;-67
2023/10/14 07:17:54;;;;;;;3.60;2.95;;;;;;;24.44;54.12;97275.94;1224102;75;2919373;-71
2023/10/14 07:20:29;;;;;;;5.95;3.20;;;;;;;28.62;46.96;97279.78;1224621;75;2924105;-70
2023/10/14 07:23:03;;;;;;;3.65;2.90;;;;;;;30.68;42.12;97268.34;1224105;75;2920099;-69
2023/10/14 07:25:41;;;;;;;6.95;4.40;;;;;;;32.67;38.19;97264.75;1223700;75;2921741;-70
2023/10/14 07:28:16;;;;;;;9.40;6.00;;;;;;;29.86;42.00;97269.50;1224720;75;2929995;-70
2023/10/14 07:30:49;;;;;;;5.80;4.00;;;;;;;31.46;38.85;97260.34;1221929;75;2920795;-70
2023/10/14 07:33:22;;;;;;;6.80;5.00;;;;;;;30.36;39.99;97256.78;1222709;75;2917530;-72
2023/10/14 07:35:57;;;;;;;7.30;4.20;;;;;;;29.93;41.06;97265.69;1224700;75;2924134;-72
2023/10/14 07:38:31;;;;;;;7.60;4.70;;;;;;;29.77;41.18;97266.84;1225005;75;2919607;-68
2023/10/14 07:41:06;;;;;;;7.00;4.35;;;;;;;29.78;42.11;97260.59;1224247;75;2918314;-72
2023/10/14 07:43:39;;;;;;;6.45;3.95;;;;;;;32.41;37.78;97255.72;1224746;75;2921152;-70
2023/10/14 07:46:12;;;;;;;3.45;2.70;;;;;;;35.98;32.83;97247.66;1224996;75;2913589;-72
2023/10/14 07:48:45;;;;;;;3.65;2.50;;;;;;;36.24;32.15;97249.91;1223945;75;2953257;-71
2023/10/14 07:51:17;;;;;;;4.30;2.45;;;;;;;35.38;32.54;97244.22;1224838;75;2918403;-72
2023/10/14 07:53:50;;;;;;;4.20;2.75;;;;;;;36.50;31.86;97240.69;1222829;75;2916859;-72
2023/10/14 07:56:25;;;;;;;4.65;2.80;;;;;;;37.34;30.27;97234.47;1217443;75;2923185;-71
2023/10/14 07:58:58;;;;;;;5.40;3.80;;;;;;;34.10;33.18;97233.19;1223430;75;2911201;-72
2023/10/14 08:01:31;;;;;;;6.80;4.05;;;;;;;34.09;34.32;97233.84;1224232;75;2967623;-69
2023/10/14 08:04:07;;;;;;;5.15;3.75;;;;;;;33.53;34.09;97223.06;1223863;75;2924284;-68
2023/10/14 08:06:41;;;;;;;4.75;2.75;;;;;;;34.24;33.83;97227.31;1224832;75;2914594;-70
2023/10/14 08:09:23;;;;;;;6.40;3.75;;;;;;;31.82;36.36;97250.09;1224031;75;2924847;-70
2023/10/14 08:11:59;;;;;;;5.05;3.20;;;;;;;31.75;36.21;97245.50;1224196;75;2929084;-74
2023/10/14 08:14:32;;;;;;;6.40;3.85;;;;;;;29.61;39.74;97258.91;1224628;75;2929417;-69
2023/10/14 08:17:11;;;;;;;5.45;3.70;;;;;;;30.41;38.19;97252.09;1224673;75;2920263;-68
2023/10/14 08:19:44;;;;;;;6.25;3.45;;;;;;;30.02;38.85;97246.38;1222980;75;2979425;-71
2023/10/14 08:22:17;;;;;;;5.25;3.80;;;;;;;29.01;40.02;97249.06;1223804;75;2936341;-70
2023/10/14 08:24:50;;;;;;;7.20;3.80;;;;;;;29.47;40.58;97249.63;1224402;75;2913425;-72
2023/10/14 08:27:27;;;;;;;6.40;3.40;;;;;;;28.37;42.01;97252.19;1224522;75;2916675;-75
2023/10/14 08:30:00;;;;;;;5.20;3.40;;;;;;;29.76;40.55;97243.56;1224584;75;2923833;-71
2023/10/14 08:32:33;;;;;;;5.10;2.80;;;;;;;30.44;38.11;97247.28;1224508;75;2920786;-71
2023/10/14 08:35:17;;;;;;;6.85;3.35;;;;;;;28.79;41.03;97259.72;1225381;75;2919579;-70
2023/10/14 08:37:52;;;;;;;3.55;2.35;;;;;;;30.43;38.80;97252.19;1224617;83;2934519;-70
2023/10/14 08:40:26;;;;;;;5.20;3.50;;;;;;;27.49;43.12;97258.56;1224060;75;2930939;-71
2023/10/14 08:43:08;;;;;;;5.15;2.90;;;;;;;29.65;39.69;97256.31;1223924;75;2923976;-69
2023/10/14 08:45:47;;;;;;;4.00;2.70;;;;;;;29.73;39.35;97242.69;1225138;75;2925335;-71
2023/10/14 08:48:23;;;;;;;5.35;3.25;;;;;;;29.55;40.45;97235.97;1224929;75;2938279;-73
2023/10/14 08:50:59;;;;;;;4.45;3.10;;;;;;;29.56;40.43;97239.53;1224398;75;2925976;-71
2023/10/14 08:53:40;;;;;;;4.45;2.95;;;;;;;29.11;40.68;97248.97;1223315;75;2920771;-69
2023/10/14 08:56:13;;;;;;;4.25;3.10;;;;;;;28.30;41.96;97247.50;1223916;75;2913538;-69
2023/10/14 08:58:48;;;;;;;5.65;3.65;;;;;;;26.95;43.89;97250.72;1224568;75;2905366;-72
2023/10/14 09:01:23;;;;;;;4.30;3.10;;;;;;;27.75;43.66;97253.19;1224792;75;2918400;-69
2023/10/14 09:03:56;;;;;;;4.50;2.90;;;;;;;27.52;43.90;97256.63;1224433;75;2921653;-71
2023/10/14 09:06:28;;;;;;;4.60;2.90;;;;;;;28.59;42.39;97250.03;1225028;75;2912889;-68
2023/10/14 09:09:01;;;;;;;3.25;2.00;;;;;;;28.85;42.16;97248.81;1224625;75;2915714;-71
2023/10/14 09:11:36;;;;;;;2.95;2.00;;;;;;;28.61;42.10;97245.25;1224258;75;2917789;-70
2023/10/14 09:14:14;;;;;;;4.35;2.70;;;;;;;28.37;42.03;97247.28;1224162;75;2923139;-69
2023/10/14 09:16:53;;;;;;;6.45;2.90;;;;;;;27.45;43.93;97240.69;1223010;75;2937703;-70
2023/10/14 09:19:26;;;;;;;4.85;2.80;;;;;;;28.41;42.43;97239.09;1223979;75;2932156;-71
2023/10/14 09:22:00;;;;;;;3.20;2.30;;;;;;;29.03;41.40;97242.78;1225037;75;2918398;-69
2023/10/14 09:24:36;;;;;;;4.45;2.65;;;;;;;28.14;41.65;97230.34;1224498;75;2921780;-68
2023/10/14 09:27:11;;;;;;;5.65;4.30;;;;;;;26.62;45.63;97231.66;1225337;75;2923336;-71
2023/10/14 09:29:46;;;;;;;8.10;3.70;;;;;;;26.92;43.46;97232.25;1224858;75;2922430;-71
2023/10/14 09:32:19;;;;;;;6.95;3.70;;;;;;;26.86;43.62;97229.75;1225535;75;2917596;-70
2023/10/14 09:34:55;;;;;;;5.05;3.10;;;;;;;29.16;40.28;97233.03;1222941;75;3006324;-71
2023/10/14 09:37:28;;;;;;;3.95;2.40;;;;;;;29.52;39.31;97229.50;1225335;75;2914887;-69
2023/10/14 09:40:09;;;;;;;6.10;3.45;;;;;;;29.75;39.62;97230.06;1225429;75;2923930;-72
2023/10/14 09:42:44;;;;;;;5.75;3.35;;;;;;;31.31;38.07;97228.47;1222865;75;2972849;-73
2023/10/14 09:45:20;;;;;;;3.75;2.60;;;;;;;31.22;37.49;97220.94;1225835;75;2929157;-72
2023/10/14 09:47:57;;;;;;;4.85;3.00;;;;;;;31.58;36.70;97222.09;1226101;75;2924225;-72
2023/10/14 09:50:31;;;;;;;6.90;3.20;;;;;;;31.25;36.79;97216.88;1226358;75;2935671;-72
2023/10/14 09:53:04;;;;;;;6.90;5.30;;;;;;;32.23;35.62;97221.63;1225304;75;2930942;-70
2023/10/14 09:55:41;;;;;;;9.40;5.65;;;;;;;30.73;36.56;97216.34;1225553;75;2926875;-69
2023/10/14 09:58:18;;;;;;;8.15;5.10;;;;;;;32.19;35.72;97209.38;1225196;75;2921477;-73
2023/10/14 10:00:54;;;;;;;5.20;3.70;;;;;;;32.06;35.82;97205.25;1226156;75;2923755;-70
2023/10/14 10:03:27;;;;;;;4.55;3.10;;;;;;;32.54;34.50;97213.81;1225276;75;2919431;-73
2023/10/14 10:06:24;;;;;;;5.65;3.90;;;;;;;31.82;35.66;97208.38;1225716;75;2928822;-69
2023/10/14 10:09:12;;;;;;;;;;;;;;;30.46;37.31;97202.91;1226284;75;2925829;-71
2023/10/14 10:11:46;;;;;;;8.20;4.40;;;;;;;29.70;38.14;97206.53;1224182;75;2926673;-68
2023/10/14 10:14:23;;;;;;;6.05;4.55;;;;;;;29.26;40.53;97208.97;1225719;75;2925778;-70
2023/10/14 10:17:03;;;;;;;6.80;4.50;;;;;;;28.24;42.13;97205.66;1225018;75;2923781;-69
2023/10/14 10:20:13;;;;;;;10.15;5.40;;;;;;;27.12;44.30;97202.69;1224569;75;2927095;-71
2023/10/14 10:22:50;;;;;;;8.10;4.80;;;;;;;27.32;43.92;97205.41;1225175;75;2923038;-72
2023/10/14 10:25:26;;;;;;;7.10;4.40;;;;;;;28.35;43.20;97202.09;1222080;75;3046590;-74
2023/10/14 10:27:59;;;;;;;9.05;5.25;;;;;;;28.16;43.49;97193.88;1224670;75;2934999;-74
2023/10/14 10:30:34;;;;;;;5.45;4.40;;;;;;;28.41;42.81;97188.41;1225070;75;2919733;-67
2023/10/14 10:33:16;;;;;;;5.55;4.25;;;;;;;29.73;41.32;97183.44;1225139;75;2922293;-69
2023/10/14 10:35:59;;;;;;;7.10;4.15;;;;;;;29.22;40.86;97191.81;1225228;75;2914819;-70
2023/10/14 10:38:36;;;;;;;8.80;5.00;;;;;;;28.52;43.17;97189.78;1225018;75;2934334;-74
2023/10/14 10:41:24;;;;;;;6.80;4.30;;;;;;;29.04;41.99;97174.56;1224750;75;2910256;-69
2023/10/14 10:44:03;;;;;;;9.90;4.20;;;;;;;29.28;41.84;97172.44;1222652;75;3033733;-71
2023/10/14 10:46:46;;;;;;;8.40;5.70;;;;;;;29.40;42.25;97174.50;1224512;75;2915195;-72
2023/10/14 10:49:56;;;;;;;12.90;5.90;;;;;;;28.85;42.76;97169.94;1225312;75;2919953;-71
2023/10/14 10:52:31;;;;;;;6.30;5.10;;;;;;;29.72;41.79;97167.88;1224417;75;2930204;-72
2023/10/14 10:55:04;;;;;;;6.00;4.65;;;;;;;29.43;40.61;97167.59;1224493;75;2927913;-74
2023/10/14 10:57:36;;;;;;;9.60;5.50;;;;;;;28.33;42.41;97168.19;1224874;75;2927318;-73
2023/10/14 11:00:17;;;;;;;6.10;3.85;;;;;;;29.68;41.41;97153.56;1226213;75;2921336;-70
2023/10/14 11:02:50;;;;;;;7.10;4.70;;;;;;;29.96;39.95;97152.91;1224527;75;2924932;-70
2023/10/14 11:05:28;;;;;;;5.70;3.50;;;;;;;31.73;38.22;97147.09;1225409;75;2923356;-72
2023/10/14 11:08:03;;;;;;;6.40;4.15;;;;;;;30.30;40.67;97137.09;1225423;75;2923978;-71
2023/10/14 11:10:40;;;;;;;7.75;5.25;;;;;;;30.06;40.07;97142.88;1225346;75;2922182;-70
2023/10/14 11:13:16;;;;;;;6.70;4.80;;;;;;;30.41;40.12;97132.72;1225718;75;2931998;-72
2023/10/14 11:15:50;;;;;;;7.55;4.90;;;;;;;30.23;40.16;97130.38;1225329;75;2918608;-72
2023/10/14 11:18:24;;;;;;;7.35;4.80;;;;;;;29.23;42.34;97136.91;1225216;75;2935091;-70
2023/10/14 11:20:59;;;;;;;6.60;4.30;;;;;;;29.37;42.66;97133.41;1222202;75;3086149;-70
2023/10/14 11:23:35;;;;;;;9.10;5.15;;;;;;;28.73;43.27;97135.41;1224593;75;2922688;-69
2023/10/14 11:26:15;;;;;;;5.40;3.70;;;;;;;31.28;39.65;97124.38;1224205;75;2919003;-71
2023/10/14 11:28:48;;;;;;;8.00;4.00;;;;;;;30.23;41.29;97115.53;1224868;75;2919500;-69
2023/10/14 11:31:27;;;;;;;7.10;4.50;;;;;;;30.18;40.79;97120.22;1224533;75;2922163;-69
2023/10/14 11:34:04;;;;;;;5.40;3.90;;;;;;;32.60;38.30;97109.97;1225478;75;2916587;-69
2023/10/14 11:36:44;;;;;;;4.00;3.30;;;;;;;33.01;38.18;97105.28;1225690;75;2918716;-66
2023/10/14 11:39:20;;;;;;;7.25;4.70;;;;;;;31.21;39.74;97115.59;1225359;75;2916862;-72
2023/10/14 11:41:53;;;;;;;6.45;4.45;;;;;;;31.58;39.48;97105.31;1225195;75;2915785;-71
2023/10/14 11:44:25;;;;;;;7.00;4.05;;;;;;;32.42;38.28;97103.47;1223546;75;2940169;-73
2023/10/14 11:47:00;;;;;;;8.00;4.15;;;;;;;32.82;37.71;97103.78;1224341;75;2915366;-70
2023/10/14 11:49:34;;;;;;;6.70;4.50;;;;;;;30.71;39.37;97106.03;1225246;75;2936157;-74
2023/10/14 11:52:10;;;;;;;9.40;4.85;;;;;;;31.58;38.59;97096.84;1225140;75;2923232;-69
2023/10/14 11:54:43;;;;;;;6.10;4.30;;;;;;;31.46;38.68;97088.53;1225848;75;2919331;-72
2023/10/14 11:57:15;;;;;;;10.05;5.05;;;;;;;31.20;39.14;97088.69;1224666;75;2927049;-73
2023/10/14 11:59:48;;;;;;;5.60;4.05;;;;;;;32.95;37.96;97093.69;1225331;75;2917049;-75
2023/10/14 12:02:23;;;;;;;5.05;4.20;;;;;;;32.30;38.13;97097.28;1225246;75;2918011;-68